sensor_id;sensor_type;location;lat;lon;timestamp;temperature;humidity
77218;DHT22;66214;51.302;17.068;2023-01-16T00:01:31;2.56;78.79
77218;DHT22;66214;51.302;17.068;2023-01-16T00:03:59;2.53;78.94
77218;DHT22;66214;51.302;17.068;2023-01-16T00:06:27;2.48;78.93
77218;DHT22;66214;51.302;17.068;2023-01-16T00:08:56;2.46;78.89
77218;DHT22;66214;51.302;17.068;2023-01-16T00:11:23;2.42;78.85
77218;DHT22;66214;51.302;17.068;2023-01-16T00:13:52;2.37;78.81
77218;DHT22;66214;51.302;17.068;2023-01-16T00:16:20;2.32;78.78
77218;DHT22;66214;51.302;17.068;2023-01-16T00:18:49;2.27;78.89
77218;DHT22;66214;51.302;17.068;2023-01-16T00:21:17;2.22;79.08
77218;DHT22;66214;51.302;17.068;2023-01-16T00:23:47;2.18;79.18
77218;DHT22;66214;51.302;17.068;2023-01-16T00:26:15;2.15;79.09
77218;DHT22;66214;51.302;17.068;2023-01-16T00:28:43;2.09;79.20
77218;DHT22;66214;51.302;17.068;2023-01-16T00:31:11;2.07;79.41
77218;DHT22;66214;51.302;17.068;2023-01-16T00:33:39;2.11;79.61
77218;DHT22;66214;51.302;17.068;2023-01-16T00:36:11;2.14;79.82
77218;DHT22;66214;51.302;17.068;2023-01-16T00:38:40;2.16;80.00
77218;DHT22;66214;51.302;17.068;2023-01-16T00:41:08;2.18;80.17
77218;DHT22;66214;51.302;17.068;2023-01-16T00:43:36;2.24;80.20
77218;DHT22;66214;51.302;17.068;2023-01-16T00:46:04;2.28;80.07
77218;DHT22;66214;51.302;17.068;2023-01-16T00:48:32;2.30;79.95
77218;DHT22;66214;51.302;17.068;2023-01-16T00:51:00;2.36;79.92
77218;DHT22;66214;51.302;17.068;2023-01-16T00:53:28;2.39;79.75
77218;DHT22;66214;51.302;17.068;2023-01-16T00:55:56;2.42;79.70
77218;DHT22;66214;51.302;17.068;2023-01-16T00:58:24;2.43;79.65
77218;DHT22;66214;51.302;17.068;2023-01-16T01:00:52;2.47;79.63
77218;DHT22;66214;51.302;17.068;2023-01-16T01:03:20;2.47;79.61
77218;DHT22;66214;51.302;17.068;2023-01-16T01:05:48;2.47;79.59
77218;DHT22;66214;51.302;17.068;2023-01-16T01:08:16;2.49;79.59
77218;DHT22;66214;51.302;17.068;2023-01-16T01:10:44;2.53;79.60
77218;DHT22;66214;51.302;17.068;2023-01-16T01:13:12;2.56;79.65
77218;DHT22;66214;51.302;17.068;2023-01-16T01:15:41;2.58;79.65
77218;DHT22;66214;51.302;17.068;2023-01-16T01:18:08;2.58;79.72
77218;DHT22;66214;51.302;17.068;2023-01-16T01:20:36;2.57;79.82
77218;DHT22;66214;51.302;17.068;2023-01-16T01:23:04;2.56;79.70
77218;DHT22;66214;51.302;17.068;2023-01-16T01:25:32;2.54;79.61
77218;DHT22;66214;51.302;17.068;2023-01-16T01:28:00;2.49;79.56
77218;DHT22;66214;51.302;17.068;2023-01-16T01:30:29;2.43;79.53
77218;DHT22;66214;51.302;17.068;2023-01-16T01:32:57;2.37;79.55
77218;DHT22;66214;51.302;17.068;2023-01-16T01:35:25;2.30;79.76
77218;DHT22;66214;51.302;17.068;2023-01-16T01:37:53;2.24;79.95
77218;DHT22;66214;51.302;17.068;2023-01-16T01:40:21;2.20;80.18
77218;DHT22;66214;51.302;17.068;2023-01-16T01:42:49;2.18;80.24
77218;DHT22;66214;51.302;17.068;2023-01-16T01:45:22;2.18;80.38
77218;DHT22;66214;51.302;17.068;2023-01-16T01:50:39;2.21;80.72
77218;DHT22;66214;51.302;17.068;2023-01-16T01:56:25;2.26;80.80
77218;DHT22;66214;51.302;17.068;2023-01-16T01:59:16;2.29;80.93
77218;DHT22;66214;51.302;17.068;2023-01-16T02:01:49;2.31;80.74
77218;DHT22;66214;51.302;17.068;2023-01-16T02:04:25;2.32;80.60
77218;DHT22;66214;51.302;17.068;2023-01-16T02:07:00;2.31;80.40
77218;DHT22;66214;51.302;17.068;2023-01-16T02:09:32;2.28;80.28
77218;DHT22;66214;51.302;17.068;2023-01-16T02:12:02;2.24;80.22
77218;DHT22;66214;51.302;17.068;2023-01-16T02:14:36;2.17;80.20
77218;DHT22;66214;51.302;17.068;2023-01-16T02:17:08;2.11;80.18
77218;DHT22;66214;51.302;17.068;2023-01-16T02:25:58;1.94;80.48
77218;DHT22;66214;51.302;17.068;2023-01-16T02:35:21;1.90;81.21
77218;DHT22;66214;51.302;17.068;2023-01-16T02:43:55;1.94;81.52
77218;DHT22;66214;51.302;17.068;2023-01-16T02:49:19;1.99;81.40
77218;DHT22;66214;51.302;17.068;2023-01-16T02:51:57;1.99;81.34
77218;DHT22;66214;51.302;17.068;2023-01-16T02:54:35;1.97;81.22
77218;DHT22;66214;51.302;17.068;2023-01-16T02:57:21;1.98;81.28
77218;DHT22;66214;51.302;17.068;2023-01-16T02:59:50;1.98;81.27
77218;DHT22;66214;51.302;17.068;2023-01-16T03:02:19;1.97;81.34
77218;DHT22;66214;51.302;17.068;2023-01-16T03:04:48;2.00;81.43
77218;DHT22;66214;51.302;17.068;2023-01-16T03:22:38;2.13;81.73
77218;DHT22;66214;51.302;17.068;2023-01-16T03:27:57;2.13;81.63
77218;DHT22;66214;51.302;17.068;2023-01-16T03:30:53;2.14;81.68
77218;DHT22;66214;51.302;17.068;2023-01-16T03:36:33;2.14;81.62
77218;DHT22;66214;51.302;17.068;2023-01-16T03:39:17;2.15;81.69
77218;DHT22;66214;51.302;17.068;2023-01-16T03:41:50;2.13;81.73
77218;DHT22;66214;51.302;17.068;2023-01-16T03:44:24;2.13;81.85
77218;DHT22;66214;51.302;17.068;2023-01-16T03:46:57;2.12;81.94
77218;DHT22;66214;51.302;17.068;2023-01-16T03:49:34;2.10;81.95
77218;DHT22;66214;51.302;17.068;2023-01-16T03:52:09;2.07;81.87
77218;DHT22;66214;51.302;17.068;2023-01-16T03:57:41;1.97;81.90
77218;DHT22;66214;51.302;17.068;2023-01-16T04:00:49;1.92;82.03
77218;DHT22;66214;51.302;17.068;2023-01-16T04:06:57;1.87;82.45
77218;DHT22;66214;51.302;17.068;2023-01-16T04:09:36;1.85;82.39
77218;DHT22;66214;51.302;17.068;2023-01-16T04:12:11;1.84;82.20
77218;DHT22;66214;51.302;17.068;2023-01-16T04:14:46;1.85;82.23
77218;DHT22;66214;51.302;17.068;2023-01-16T04:17:20;1.86;82.34
77218;DHT22;66214;51.302;17.068;2023-01-16T04:19:49;1.87;82.49
77218;DHT22;66214;51.302;17.068;2023-01-16T04:22:20;1.88;82.47
77218;DHT22;66214;51.302;17.068;2023-01-16T04:24:55;1.89;82.48
77218;DHT22;66214;51.302;17.068;2023-01-16T04:27:25;1.90;82.30
77218;DHT22;66214;51.302;17.068;2023-01-16T04:29:54;1.90;82.09
77218;DHT22;66214;51.302;17.068;2023-01-16T04:32:22;1.88;81.92
77218;DHT22;66214;51.302;17.068;2023-01-16T04:34:50;1.86;81.84
77218;DHT22;66214;51.302;17.068;2023-01-16T04:37:18;1.83;81.71
77218;DHT22;66214;51.302;17.068;2023-01-16T04:39:46;1.80;81.71
77218;DHT22;66214;51.302;17.068;2023-01-16T04:42:15;1.79;81.74
77218;DHT22;66214;51.302;17.068;2023-01-16T04:44:43;1.75;81.67
77218;DHT22;66214;51.302;17.068;2023-01-16T04:47:11;1.72;81.67
77218;DHT22;66214;51.302;17.068;2023-01-16T04:49:39;1.69;81.71
77218;DHT22;66214;51.302;17.068;2023-01-16T04:52:08;1.70;81.80
77218;DHT22;66214;51.302;17.068;2023-01-16T04:54:38;1.73;81.95
77218;DHT22;66214;51.302;17.068;2023-01-16T04:57:06;1.74;82.02
77218;DHT22;66214;51.302;17.068;2023-01-16T04:59:34;1.78;82.12
77218;DHT22;66214;51.302;17.068;2023-01-16T05:02:02;1.81;82.22
77218;DHT22;66214;51.302;17.068;2023-01-16T05:04:30;1.84;82.23
77218;DHT22;66214;51.302;17.068;2023-01-16T05:06:58;1.85;82.10
77218;DHT22;66214;51.302;17.068;2023-01-16T05:09:26;1.83;82.00
77218;DHT22;66214;51.302;17.068;2023-01-16T05:11:54;1.80;81.87
77218;DHT22;66214;51.302;17.068;2023-01-16T05:14:22;1.75;81.83
77218;DHT22;66214;51.302;17.068;2023-01-16T05:16:50;1.71;81.96
77218;DHT22;66214;51.302;17.068;2023-01-16T05:19:18;1.67;81.96
77218;DHT22;66214;51.302;17.068;2023-01-16T05:21:46;1.63;81.95
77218;DHT22;66214;51.302;17.068;2023-01-16T05:24:14;1.59;81.90
77218;DHT22;66214;51.302;17.068;2023-01-16T05:26:42;1.54;81.87
77218;DHT22;66214;51.302;17.068;2023-01-16T05:29:10;1.52;81.86
77218;DHT22;66214;51.302;17.068;2023-01-16T05:31:38;1.52;81.99
77218;DHT22;66214;51.302;17.068;2023-01-16T05:34:08;1.53;82.20
77218;DHT22;66214;51.302;17.068;2023-01-16T05:40:11;1.64;82.74
77218;DHT22;66214;51.302;17.068;2023-01-16T05:42:43;1.69;82.71
77218;DHT22;66214;51.302;17.068;2023-01-16T05:45:14;1.71;82.56
77218;DHT22;66214;51.302;17.068;2023-01-16T05:47:42;1.74;82.37
77218;DHT22;66214;51.302;17.068;2023-01-16T05:50:11;1.75;82.19
77218;DHT22;66214;51.302;17.068;2023-01-16T05:52:39;1.75;81.98
77218;DHT22;66214;51.302;17.068;2023-01-16T05:55:07;1.74;81.79
77218;DHT22;66214;51.302;17.068;2023-01-16T05:57:36;1.74;81.67
77218;DHT22;66214;51.302;17.068;2023-01-16T06:00:04;1.74;81.59
77218;DHT22;66214;51.302;17.068;2023-01-16T06:02:33;1.72;81.49
77218;DHT22;66214;51.302;17.068;2023-01-16T06:05:02;1.72;81.51
77218;DHT22;66214;51.302;17.068;2023-01-16T06:07:31;1.71;81.49
77218;DHT22;66214;51.302;17.068;2023-01-16T06:09:59;1.70;81.46
77218;DHT22;66214;51.302;17.068;2023-01-16T06:12:28;1.68;81.49
77218;DHT22;66214;51.302;17.068;2023-01-16T06:14:56;1.67;81.61
77218;DHT22;66214;51.302;17.068;2023-01-16T06:17:24;1.69;81.80
77218;DHT22;66214;51.302;17.068;2023-01-16T06:19:52;1.72;81.89
77218;DHT22;66214;51.302;17.068;2023-01-16T06:22:19;1.74;82.00
77218;DHT22;66214;51.302;17.068;2023-01-16T06:24:48;1.76;82.18
77218;DHT22;66214;51.302;17.068;2023-01-16T06:27:16;1.80;82.13
77218;DHT22;66214;51.302;17.068;2023-01-16T06:29:44;1.80;81.97
77218;DHT22;66214;51.302;17.068;2023-01-16T06:32:12;1.80;81.81
77218;DHT22;66214;51.302;17.068;2023-01-16T06:34:40;1.80;81.69
77218;DHT22;66214;51.302;17.068;2023-01-16T06:37:08;1.79;81.63
77218;DHT22;66214;51.302;17.068;2023-01-16T06:39:38;1.76;81.52
77218;DHT22;66214;51.302;17.068;2023-01-16T06:42:06;1.74;81.45
77218;DHT22;66214;51.302;17.068;2023-01-16T06:44:34;1.71;81.43
77218;DHT22;66214;51.302;17.068;2023-01-16T06:47:02;1.67;81.42
77218;DHT22;66214;51.302;17.068;2023-01-16T06:49:31;1.67;81.45
77218;DHT22;66214;51.302;17.068;2023-01-16T06:51:58;1.64;81.45
77218;DHT22;66214;51.302;17.068;2023-01-16T06:54:27;1.64;81.47
77218;DHT22;66214;51.302;17.068;2023-01-16T06:56:55;1.66;81.65
77218;DHT22;66214;51.302;17.068;2023-01-16T06:59:23;1.67;81.83
77218;DHT22;66214;51.302;17.068;2023-01-16T07:01:51;1.70;82.01
77218;DHT22;66214;51.302;17.068;2023-01-16T07:04:19;1.74;82.19
77218;DHT22;66214;51.302;17.068;2023-01-16T07:10:11;1.81;82.55
77218;DHT22;66214;51.302;17.068;2023-01-16T07:12:38;1.85;82.46
77218;DHT22;66214;51.302;17.068;2023-01-16T07:18:17;1.88;82.14
77218;DHT22;66214;51.302;17.068;2023-01-16T07:21:05;1.88;81.99
77218;DHT22;66214;51.302;17.068;2023-01-16T07:23:58;1.86;81.77
77218;DHT22;66214;51.302;17.068;2023-01-16T07:26:31;1.84;81.67
77218;DHT22;66214;51.302;17.068;2023-01-16T07:29:02;1.82;81.61
77218;DHT22;66214;51.302;17.068;2023-01-16T07:31:31;1.80;81.56
77218;DHT22;66214;51.302;17.068;2023-01-16T07:34:01;1.78;81.61
77218;DHT22;66214;51.302;17.068;2023-01-16T07:36:29;1.78;81.75
77218;DHT22;66214;51.302;17.068;2023-01-16T07:38:57;1.78;81.92
77218;DHT22;66214;51.302;17.068;2023-01-16T07:41:25;1.78;82.08
77218;DHT22;66214;51.302;17.068;2023-01-16T07:43:53;1.79;82.21
77218;DHT22;66214;51.302;17.068;2023-01-16T07:46:21;1.82;82.26
77218;DHT22;66214;51.302;17.068;2023-01-16T07:48:48;1.84;82.21
77218;DHT22;66214;51.302;17.068;2023-01-16T07:51:19;1.85;82.04
77218;DHT22;66214;51.302;17.068;2023-01-16T07:53:47;1.87;81.90
77218;DHT22;66214;51.302;17.068;2023-01-16T07:56:15;1.87;81.79
77218;DHT22;66214;51.302;17.068;2023-01-16T07:58:43;1.86;81.67
77218;DHT22;66214;51.302;17.068;2023-01-16T08:01:11;1.84;81.65
77218;DHT22;66214;51.302;17.068;2023-01-16T08:03:39;1.84;81.62
77218;DHT22;66214;51.302;17.068;2023-01-16T08:06:07;1.84;81.61
77218;DHT22;66214;51.302;17.068;2023-01-16T08:08:35;1.82;81.58
77218;DHT22;66214;51.302;17.068;2023-01-16T08:11:03;1.83;81.60
77218;DHT22;66214;51.302;17.068;2023-01-16T08:13:51;1.84;81.58
77218;DHT22;66214;51.302;17.068;2023-01-16T08:16:19;1.87;81.52
77218;DHT22;66214;51.302;17.068;2023-01-16T08:18:47;1.93;81.63
77218;DHT22;66214;51.302;17.068;2023-01-16T08:21:16;2.01;81.88
77218;DHT22;66214;51.302;17.068;2023-01-16T08:23:45;2.10;82.12
77218;DHT22;66214;51.302;17.068;2023-01-16T08:26:14;2.20;82.24
77218;DHT22;66214;51.302;17.068;2023-01-16T08:28:42;2.33;82.29
77218;DHT22;66214;51.302;17.068;2023-01-16T08:31:11;2.44;82.24
77218;DHT22;66214;51.302;17.068;2023-01-16T08:33:42;2.55;82.07
77218;DHT22;66214;51.302;17.068;2023-01-16T08:36:11;2.65;81.74
77218;DHT22;66214;51.302;17.068;2023-01-16T08:38:40;2.75;81.40
77218;DHT22;66214;51.302;17.068;2023-01-16T08:41:12;2.85;81.20
77218;DHT22;66214;51.302;17.068;2023-01-16T08:43:59;2.90;80.95
77218;DHT22;66214;51.302;17.068;2023-01-16T08:47:04;2.93;80.86
77218;DHT22;66214;51.302;17.068;2023-01-16T08:49:57;2.96;80.78
77218;DHT22;66214;51.302;17.068;2023-01-16T08:52:45;2.97;80.61
77218;DHT22;66214;51.302;17.068;2023-01-16T08:55:13;3.03;80.42
77218;DHT22;66214;51.302;17.068;2023-01-16T08:57:41;3.10;80.35
77218;DHT22;66214;51.302;17.068;2023-01-16T09:00:09;3.18;80.23
77218;DHT22;66214;51.302;17.068;2023-01-16T09:02:38;3.26;79.93
77218;DHT22;66214;51.302;17.068;2023-01-16T09:05:06;3.35;80.01
77218;DHT22;66214;51.302;17.068;2023-01-16T09:07:35;3.45;80.01
77218;DHT22;66214;51.302;17.068;2023-01-16T09:10:03;3.56;80.07
77218;DHT22;66214;51.302;17.068;2023-01-16T09:12:32;3.68;79.95
77218;DHT22;66214;51.302;17.068;2023-01-16T09:15:19;3.82;79.79
77218;DHT22;66214;51.302;17.068;2023-01-16T09:17:47;3.94;79.66
77218;DHT22;66214;51.302;17.068;2023-01-16T09:23:40;4.23;79.12
77218;DHT22;66214;51.302;17.068;2023-01-16T09:26:08;4.35;78.80
77218;DHT22;66214;51.302;17.068;2023-01-16T09:28:36;4.45;78.59
77218;DHT22;66214;51.302;17.068;2023-01-16T09:31:04;4.54;78.34
77218;DHT22;66214;51.302;17.068;2023-01-16T09:33:32;4.64;78.08
77218;DHT22;66214;51.302;17.068;2023-01-16T09:36:00;4.70;77.87
77218;DHT22;66214;51.302;17.068;2023-01-16T09:38:28;4.76;77.61
77218;DHT22;66214;51.302;17.068;2023-01-16T09:40:57;4.82;77.16
77218;DHT22;66214;51.302;17.068;2023-01-16T09:43:36;4.90;77.19
77218;DHT22;66214;51.302;17.068;2023-01-16T09:46:13;4.97;76.81
77218;DHT22;66214;51.302;17.068;2023-01-16T09:48:50;5.07;76.63
77218;DHT22;66214;51.302;17.068;2023-01-16T09:54:31;5.25;76.34
77218;DHT22;66214;51.302;17.068;2023-01-16T09:57:27;5.40;76.15
77218;DHT22;66214;51.302;17.068;2023-01-16T10:00:16;5.55;76.12
77218;DHT22;66214;51.302;17.068;2023-01-16T10:02:45;5.70;76.10
77218;DHT22;66214;51.302;17.068;2023-01-16T10:05:13;5.82;75.66
77218;DHT22;66214;51.302;17.068;2023-01-16T10:10:36;6.10;75.01
77218;DHT22;66214;51.302;17.068;2023-01-16T10:16:11;6.36;74.33
77218;DHT22;66214;51.302;17.068;2023-01-16T10:18:54;6.55;73.72
77218;DHT22;66214;51.302;17.068;2023-01-16T10:30:25;8.55;70.87
77218;DHT22;66214;51.302;17.068;2023-01-16T10:36:11;10.81;68.85
77218;DHT22;66214;51.302;17.068;2023-01-16T10:38:47;11.69;68.05
77218;DHT22;66214;51.302;17.068;2023-01-16T10:44:33;13.10;64.85
77218;DHT22;66214;51.302;17.068;2023-01-16T10:47:24;13.63;64.32
77218;DHT22;66214;51.302;17.068;2023-01-16T10:50:17;14.16;64.88
77218;DHT22;66214;51.302;17.068;2023-01-16T10:52:47;14.63;63.14
77218;DHT22;66214;51.302;17.068;2023-01-16T10:55:16;14.93;61.02
77218;DHT22;66214;51.302;17.068;2023-01-16T10:57:58;15.22;60.41
77218;DHT22;66214;51.302;17.068;2023-01-16T11:00:32;15.49;59.57
77218;DHT22;66214;51.302;17.068;2023-01-16T11:03:10;15.71;57.52
77218;DHT22;66214;51.302;17.068;2023-01-16T11:09:01;16.03;55.88
77218;DHT22;66214;51.302;17.068;2023-01-16T11:11:33;16.15;56.22
77218;DHT22;66214;51.302;17.068;2023-01-16T11:14:24;16.43;55.25
77218;DHT22;66214;51.302;17.068;2023-01-16T11:20:21;16.77;54.84
77218;DHT22;66214;51.302;17.068;2023-01-16T11:22:55;17.09;54.57
77218;DHT22;66214;51.302;17.068;2023-01-16T11:25:38;17.24;53.79
77218;DHT22;66214;51.302;17.068;2023-01-16T11:28:07;17.41;52.59
77218;DHT22;66214;51.302;17.068;2023-01-16T18:03:25;2.59;75.46
77218;DHT22;66214;51.302;17.068;2023-01-16T18:05:58;2.52;75.45
77218;DHT22;66214;51.302;17.068;2023-01-16T18:08:34;2.47;75.44
77218;DHT22;66214;51.302;17.068;2023-01-16T18:11:03;2.44;75.63
77218;DHT22;66214;51.302;17.068;2023-01-16T18:13:51;2.39;75.84
77218;DHT22;66214;51.302;17.068;2023-01-16T18:16:38;2.36;75.99
77218;DHT22;66214;51.302;17.068;2023-01-16T18:19:25;2.33;76.15
77218;DHT22;66214;51.302;17.068;2023-01-16T18:21:53;2.32;76.26
77218;DHT22;66214;51.302;17.068;2023-01-16T18:24:28;2.29;76.16
77218;DHT22;66214;51.302;17.068;2023-01-16T18:26:58;2.27;76.03
77218;DHT22;66214;51.302;17.068;2023-01-16T18:29:29;2.24;75.92
77218;DHT22;66214;51.302;17.068;2023-01-16T18:31:58;2.19;75.68
77218;DHT22;66214;51.302;17.068;2023-01-16T18:34:49;2.13;75.60
77218;DHT22;66214;51.302;17.068;2023-01-16T18:40:12;1.99;75.61
77218;DHT22;66214;51.302;17.068;2023-01-16T18:43:01;1.91;75.56
77218;DHT22;66214;51.302;17.068;2023-01-16T18:45:47;1.81;75.41
77218;DHT22;66214;51.302;17.068;2023-01-16T18:48:34;1.70;75.48
77218;DHT22;66214;51.302;17.068;2023-01-16T18:51:21;1.61;75.51
77218;DHT22;66214;51.302;17.068;2023-01-16T18:54:15;1.53;75.63
77218;DHT22;66214;51.302;17.068;2023-01-16T18:57:11;1.48;75.73
77218;DHT22;66214;51.302;17.068;2023-01-16T19:00:00;1.45;76.13
77218;DHT22;66214;51.302;17.068;2023-01-16T19:02:48;1.44;76.61
77218;DHT22;66214;51.302;17.068;2023-01-16T19:05:21;1.47;76.84
77218;DHT22;66214;51.302;17.068;2023-01-16T19:07:49;1.52;77.18
77218;DHT22;66214;51.302;17.068;2023-01-16T19:10:23;1.58;77.50
77218;DHT22;66214;51.302;17.068;2023-01-16T19:12:55;1.66;77.43
77218;DHT22;66214;51.302;17.068;2023-01-16T19:15:26;1.72;77.18
77218;DHT22;66214;51.302;17.068;2023-01-16T19:17:56;1.76;77.00
77218;DHT22;66214;51.302;17.068;2023-01-16T19:20:25;1.79;77.02
77218;DHT22;66214;51.302;17.068;2023-01-16T19:22:55;1.81;76.79
77218;DHT22;66214;51.302;17.068;2023-01-16T19:25:23;1.83;76.78
77218;DHT22;66214;51.302;17.068;2023-01-16T19:27:51;1.85;76.91
77218;DHT22;66214;51.302;17.068;2023-01-16T19:30:19;1.86;77.08
77218;DHT22;66214;51.302;17.068;2023-01-16T19:32:48;1.87;76.87
77218;DHT22;66214;51.302;17.068;2023-01-16T19:35:16;1.88;77.04
77218;DHT22;66214;51.302;17.068;2023-01-16T19:37:45;1.89;76.89
77218;DHT22;66214;51.302;17.068;2023-01-16T19:40:14;1.88;77.00
77218;DHT22;66214;51.302;17.068;2023-01-16T19:42:44;1.89;77.24
77218;DHT22;66214;51.302;17.068;2023-01-16T19:45:32;1.90;77.56
77218;DHT22;66214;51.302;17.068;2023-01-16T19:48:19;1.89;77.57
77218;DHT22;66214;51.302;17.068;2023-01-16T19:50:49;1.89;77.77
77218;DHT22;66214;51.302;17.068;2023-01-16T19:53:18;1.88;77.93
77218;DHT22;66214;51.302;17.068;2023-01-16T19:55:47;1.88;78.15
77218;DHT22;66214;51.302;17.068;2023-01-16T19:58:16;1.86;78.27
77218;DHT22;66214;51.302;17.068;2023-01-16T20:00:44;1.86;78.25
77218;DHT22;66214;51.302;17.068;2023-01-16T20:03:13;1.85;78.11
77218;DHT22;66214;51.302;17.068;2023-01-16T20:05:41;1.84;78.08
77218;DHT22;66214;51.302;17.068;2023-01-16T20:08:10;1.85;78.17
77218;DHT22;66214;51.302;17.068;2023-01-16T20:10:38;1.87;78.10
77218;DHT22;66214;51.302;17.068;2023-01-16T20:13:06;1.88;77.98
77218;DHT22;66214;51.302;17.068;2023-01-16T20:15:34;1.89;78.01
77218;DHT22;66214;51.302;17.068;2023-01-16T20:18:03;1.89;78.45
77218;DHT22;66214;51.302;17.068;2023-01-16T20:20:31;1.90;78.50
77218;DHT22;66214;51.302;17.068;2023-01-16T20:22:59;1.91;78.56
77218;DHT22;66214;51.302;17.068;2023-01-16T20:25:27;1.93;78.73
77218;DHT22;66214;51.302;17.068;2023-01-16T20:27:55;1.94;78.86
77218;DHT22;66214;51.302;17.068;2023-01-16T20:30:23;1.97;79.14
77218;DHT22;66214;51.302;17.068;2023-01-16T20:33:10;2.02;79.34
77218;DHT22;66214;51.302;17.068;2023-01-16T20:35:39;2.08;79.80
77218;DHT22;66214;51.302;17.068;2023-01-16T20:38:07;2.13;79.83
77218;DHT22;66214;51.302;17.068;2023-01-16T20:40:35;2.19;79.71
77218;DHT22;66214;51.302;17.068;2023-01-16T20:43:03;2.25;79.73
77218;DHT22;66214;51.302;17.068;2023-01-16T20:45:50;2.30;79.74
77218;DHT22;66214;51.302;17.068;2023-01-16T20:48:18;2.35;79.48
77218;DHT22;66214;51.302;17.068;2023-01-16T20:50:47;2.38;79.64
77218;DHT22;66214;51.302;17.068;2023-01-16T20:53:16;2.42;79.56
77218;DHT22;66214;51.302;17.068;2023-01-16T20:55:46;2.44;79.63
77218;DHT22;66214;51.302;17.068;2023-01-16T20:58:16;2.45;79.55
77218;DHT22;66214;51.302;17.068;2023-01-16T21:00:44;2.46;79.57
77218;DHT22;66214;51.302;17.068;2023-01-16T21:03:12;2.48;79.66
77218;DHT22;66214;51.302;17.068;2023-01-16T21:05:41;2.52;79.82
77218;DHT22;66214;51.302;17.068;2023-01-16T21:08:09;2.57;80.08
77218;DHT22;66214;51.302;17.068;2023-01-16T21:10:37;2.61;80.11
77218;DHT22;66214;51.302;17.068;2023-01-16T21:13:05;2.66;80.30
77218;DHT22;66214;51.302;17.068;2023-01-16T21:15:55;2.74;80.69
77218;DHT22;66214;51.302;17.068;2023-01-16T21:18:42;2.79;80.60
77218;DHT22;66214;51.302;17.068;2023-01-16T21:21:30;2.85;80.45
77218;DHT22;66214;51.302;17.068;2023-01-16T21:24:17;2.88;80.50
77218;DHT22;66214;51.302;17.068;2023-01-16T21:26:47;2.89;80.32
77218;DHT22;66214;51.302;17.068;2023-01-16T21:29:16;2.91;80.30
77218;DHT22;66214;51.302;17.068;2023-01-16T21:31:44;2.91;80.23
77218;DHT22;66214;51.302;17.068;2023-01-16T21:34:12;2.91;80.44
77218;DHT22;66214;51.302;17.068;2023-01-16T21:36:40;2.90;80.39
77218;DHT22;66214;51.302;17.068;2023-01-16T21:39:09;2.89;80.37
77218;DHT22;66214;51.302;17.068;2023-01-16T21:41:38;2.88;80.29
77218;DHT22;66214;51.302;17.068;2023-01-16T21:44:25;2.90;80.31
77218;DHT22;66214;51.302;17.068;2023-01-16T21:47:12;2.94;80.48
77218;DHT22;66214;51.302;17.068;2023-01-16T21:49:42;2.97;80.63
77218;DHT22;66214;51.302;17.068;2023-01-16T21:52:10;3.01;80.84
77218;DHT22;66214;51.302;17.068;2023-01-16T21:54:38;3.06;81.05
77218;DHT22;66214;51.302;17.068;2023-01-16T21:57:06;3.11;81.12
77218;DHT22;66214;51.302;17.068;2023-01-16T21:59:35;3.11;81.00
77218;DHT22;66214;51.302;17.068;2023-01-16T22:02:03;3.13;80.89
77218;DHT22;66214;51.302;17.068;2023-01-16T22:04:32;3.15;80.81
77218;DHT22;66214;51.302;17.068;2023-01-16T22:07:00;3.19;80.78
77218;DHT22;66214;51.302;17.068;2023-01-16T22:09:28;3.21;80.61
77218;DHT22;66214;51.302;17.068;2023-01-16T22:11:56;3.22;80.56
77218;DHT22;66214;51.302;17.068;2023-01-16T22:14:43;3.21;80.39
77218;DHT22;66214;51.302;17.068;2023-01-16T22:17:30;3.22;80.38
77218;DHT22;66214;51.302;17.068;2023-01-16T22:20:15;3.20;80.28
77218;DHT22;66214;51.302;17.068;2023-01-16T22:22:50;3.20;80.23
77218;DHT22;66214;51.302;17.068;2023-01-16T22:25:24;3.22;80.39
77218;DHT22;66214;51.302;17.068;2023-01-16T22:27:54;3.24;80.64
77218;DHT22;66214;51.302;17.068;2023-01-16T22:30:23;3.26;80.98
77218;DHT22;66214;51.302;17.068;2023-01-16T22:32:52;3.28;81.16
77218;DHT22;66214;51.302;17.068;2023-01-16T22:35:20;3.30;81.44
77218;DHT22;66214;51.302;17.068;2023-01-16T22:37:48;3.33;81.48
77218;DHT22;66214;51.302;17.068;2023-01-16T22:40:16;3.35;81.55
77218;DHT22;66214;51.302;17.068;2023-01-16T22:42:45;3.37;81.37
77218;DHT22;66214;51.302;17.068;2023-01-16T22:45:13;3.41;81.30
77218;DHT22;66214;51.302;17.068;2023-01-16T22:48:00;3.40;81.20
77218;DHT22;66214;51.302;17.068;2023-01-16T22:50:28;3.40;81.19
77218;DHT22;66214;51.302;17.068;2023-01-16T22:52:56;3.40;81.06
77218;DHT22;66214;51.302;17.068;2023-01-16T22:55:24;3.38;81.11
77218;DHT22;66214;51.302;17.068;2023-01-16T22:57:52;3.37;81.20
77218;DHT22;66214;51.302;17.068;2023-01-16T23:00:20;3.36;81.23
77218;DHT22;66214;51.302;17.068;2023-01-16T23:02:48;3.38;81.53
77218;DHT22;66214;51.302;17.068;2023-01-16T23:05:16;3.40;81.76
77218;DHT22;66214;51.302;17.068;2023-01-16T23:07:44;3.43;81.95
77218;DHT22;66214;51.302;17.068;2023-01-16T23:10:12;3.46;82.21
77218;DHT22;66214;51.302;17.068;2023-01-16T23:12:40;3.49;82.27
77218;DHT22;66214;51.302;17.068;2023-01-16T23:15:08;3.53;82.43
77218;DHT22;66214;51.302;17.068;2023-01-16T23:17:37;3.58;82.37
77218;DHT22;66214;51.302;17.068;2023-01-16T23:20:05;3.63;82.32
77218;DHT22;66214;51.302;17.068;2023-01-16T23:22:34;3.66;82.20
77218;DHT22;66214;51.302;17.068;2023-01-16T23:25:02;3.66;82.14
77218;DHT22;66214;51.302;17.068;2023-01-16T23:27:31;3.64;82.18
77218;DHT22;66214;51.302;17.068;2023-01-16T23:29:59;3.62;82.08
77218;DHT22;66214;51.302;17.068;2023-01-16T23:32:27;3.61;82.02
77218;DHT22;66214;51.302;17.068;2023-01-16T23:34:55;3.59;81.90
77218;DHT22;66214;51.302;17.068;2023-01-16T23:37:23;3.57;81.97
77218;DHT22;66214;51.302;17.068;2023-01-16T23:39:51;3.56;82.12
77218;DHT22;66214;51.302;17.068;2023-01-16T23:42:19;3.58;82.36
77218;DHT22;66214;51.302;17.068;2023-01-16T23:45:06;3.57;82.54
77218;DHT22;66214;51.302;17.068;2023-01-16T23:47:34;3.55;82.69
77218;DHT22;66214;51.302;17.068;2023-01-16T23:50:03;3.52;82.72
77218;DHT22;66214;51.302;17.068;2023-01-16T23:52:33;3.47;82.85
77218;DHT22;66214;51.302;17.068;2023-01-16T23:55:01;3.41;82.85
77218;DHT22;66214;51.302;17.068;2023-01-16T23:57:29;3.36;82.74
77218;DHT22;66214;51.302;17.068;2023-01-16T23:59:57;3.31;82.61
